sensor_id;sensor_type;location;lat;lon;timestamp;pressure;altitude;pressure_sealevel;temperature;humidity
36600;BME280;35385;55.668;37.508;2023-04-28T00:00:18;98694.53;;;14.27;100.00
36600;BME280;35385;55.668;37.508;2023-04-28T00:01:19;98703.06;;;14.31;100.00
36600;BME280;35385;55.668;37.508;2023-04-28T00:02:19;98711.94;;;14.31;100.00
36600;BME280;35385;55.668;37.508;2023-04-28T00:03:20;98718.31;;;14.38;100.00
36600;BME280;35385;55.668;37.508;2023-04-28T00:04:21;98664.88;;;14.04;100.00
36600;BME280;35385;55.668;37.508;2023-04-28T00:05:21;98663.88;;;14.05;100.00
36600;BME280;35385;55.668;37.508;2023-04-28T00:06:25;98690.50;;;14.23;100.00
36600;BME280;35385;55.668;37.508;2023-04-28T00:07:25;98699.56;;;14.22;100.00
36600;BME280;35385;55.668;37.508;2023-04-28T00:08:26;98605.91;;;13.72;100.00
36600;BME280;35385;55.668;37.508;2023-04-28T00:09:27;98650.31;;;13.99;100.00
36600;BME280;35385;55.668;37.508;2023-04-28T00:10:28;98696.22;;;14.20;100.00
36600;BME280;35385;55.668;37.508;2023-04-28T00:11:29;98685.16;;;14.15;100.00
36600;BME280;35385;55.668;37.508;2023-04-28T00:12:30;98701.75;;;14.27;100.00
36600;BME280;35385;55.668;37.508;2023-04-28T00:13:31;98686.16;;;14.22;100.00
36600;BME280;35385;55.668;37.508;2023-04-28T00:14:31;98693.53;;;14.28;100.00
36600;BME280;35385;55.668;37.508;2023-04-28T00:15:32;98692.84;;;14.26;100.00
36600;BME280;35385;55.668;37.508;2023-04-28T00:16:33;98690.50;;;14.23;100.00
36600;BME280;35385;55.668;37.508;2023-04-28T00:17:33;98706.28;;;14.26;100.00
36600;BME280;35385;55.668;37.508;2023-04-28T00:18:34;98680.09;;;14.20;100.00
36600;BME280;35385;55.668;37.508;2023-04-28T00:19:35;98705.28;;;14.27;100.00
36600;BME280;35385;55.668;37.508;2023-04-28T00:20:36;98697.91;;;14.21;100.00
36600;BME280;35385;55.668;37.508;2023-04-28T00:21:36;98693.53;;;14.20;100.00
36600;BME280;35385;55.668;37.508;2023-04-28T00:22:37;98639.94;;;13.88;100.00
36600;BME280;35385;55.668;37.508;2023-04-28T00:23:38;98697.91;;;14.21;100.00
36600;BME280;35385;55.668;37.508;2023-04-28T00:24:38;98701.25;;;14.23;100.00
36600;BME280;35385;55.668;37.508;2023-04-28T00:25:41;98694.38;;;14.21;100.00
36600;BME280;35385;55.668;37.508;2023-04-28T00:26:41;98694.38;;;14.21;100.00
36600;BME280;35385;55.668;37.508;2023-04-28T00:27:42;98631.88;;;13.88;100.00
36600;BME280;35385;55.668;37.508;2023-04-28T00:28:42;98683.66;;;14.12;100.00
36600;BME280;35385;55.668;37.508;2023-04-28T00:29:43;98679.66;;;14.00;100.00
36600;BME280;35385;55.668;37.508;2023-04-28T00:30:43;98631.75;;;13.73;100.00
36600;BME280;35385;55.668;37.508;2023-04-28T00:31:44;98632.59;;;13.82;100.00
36600;BME280;35385;55.668;37.508;2023-04-28T00:32:45;98640.94;;;13.87;100.00
36600;BME280;35385;55.668;37.508;2023-04-28T00:33:45;98679.81;;;14.07;100.00
36600;BME280;35385;55.668;37.508;2023-04-28T00:34:46;98678.63;;;14.09;100.00
36600;BME280;35385;55.668;37.508;2023-04-28T00:35:46;98682.81;;;14.12;100.00
36600;BME280;35385;55.668;37.508;2023-04-28T00:36:47;98633.41;;;13.82;100.00
36600;BME280;35385;55.668;37.508;2023-04-28T00:37:48;98684.84;;;14.10;100.00
36600;BME280;35385;55.668;37.508;2023-04-28T00:38:49;98630.25;;;13.70;100.00
36600;BME280;35385;55.668;37.508;2023-04-28T00:39:56;98664.38;;;14.01;100.00
36600;BME280;35385;55.668;37.508;2023-04-28T00:40:57;98676.78;;;14.02;100.00
36600;BME280;35385;55.668;37.508;2023-04-28T00:41:57;98617.50;;;13.72;100.00
36600;BME280;35385;55.668;37.508;2023-04-28T00:42:58;98676.13;;;14.08;100.00
36600;BME280;35385;55.668;37.508;2023-04-28T00:43:58;98681.50;;;14.08;100.00
36600;BME280;35385;55.668;37.508;2023-04-28T00:44:59;98683.00;;;14.10;100.00
36600;BME280;35385;55.668;37.508;2023-04-28T00:46:05;98661.91;;;13.99;100.00
36600;BME280;35385;55.668;37.508;2023-04-28T00:47:07;98669.63;;;13.94;100.00
36600;BME280;35385;55.668;37.508;2023-04-28T00:48:08;98664.75;;;13.98;100.00
36600;BME280;35385;55.668;37.508;2023-04-28T00:49:09;98611.47;;;13.62;100.00
36600;BME280;35385;55.668;37.508;2023-04-28T00:50:10;98670.75;;;14.08;100.00
36600;BME280;35385;55.668;37.508;2023-04-28T00:51:10;98635.09;;;13.83;100.00
36600;BME280;35385;55.668;37.508;2023-04-28T00:52:11;98619.03;;;13.67;100.00
36600;BME280;35385;55.668;37.508;2023-04-28T00:53:13;98671.78;;;13.99;100.00
36600;BME280;35385;55.668;37.508;2023-04-28T00:54:13;98668.44;;;13.97;100.00
36600;BME280;35385;55.668;37.508;2023-04-28T00:55:15;98612.53;;;13.53;100.00
36600;BME280;35385;55.668;37.508;2023-04-28T00:56:16;98626.06;;;13.60;100.00
36600;BME280;35385;55.668;37.508;2023-04-28T00:57:16;98672.66;;;13.83;100.00
36600;BME280;35385;55.668;37.508;2023-04-28T00:58:18;98679.84;;;13.91;100.00
36600;BME280;35385;55.668;37.508;2023-04-28T00:59:18;98694.59;;;14.03;100.00
36600;BME280;35385;55.668;37.508;2023-04-28T01:00:19;98645.53;;;13.70;100.00
36600;BME280;35385;55.668;37.508;2023-04-28T01:01:20;98680.53;;;13.93;100.00
36600;BME280;35385;55.668;37.508;2023-04-28T01:02:20;98683.88;;;13.95;100.00
36600;BME280;35385;55.668;37.508;2023-04-28T01:03:21;98679.34;;;13.95;100.00
36600;BME280;35385;55.668;37.508;2023-04-28T01:04:22;98682.88;;;13.96;100.00
36600;BME280;35385;55.668;37.508;2023-04-28T01:05:25;98694.59;;;14.03;100.00
36600;BME280;35385;55.668;37.508;2023-04-28T01:06:26;98689.75;;;13.98;100.00
36600;BME280;35385;55.668;37.508;2023-04-28T01:07:28;98692.06;;;14.01;100.00
36600;BME280;35385;55.668;37.508;2023-04-28T01:08:32;98668.09;;;13.92;100.00
36600;BME280;35385;55.668;37.508;2023-04-28T01:09:34;98668.09;;;13.92;100.00
36600;BME280;35385;55.668;37.508;2023-04-28T01:10:34;98680.84;;;13.98;100.00
36600;BME280;35385;55.668;37.508;2023-04-28T01:11:35;98676.16;;;13.92;100.00
36600;BME280;35385;55.668;37.508;2023-04-28T01:12:36;98674.66;;;13.97;100.00
36600;BME280;35385;55.668;37.508;2023-04-28T01:13:37;98681.81;;;14.05;100.00
36600;BME280;35385;55.668;37.508;2023-04-28T01:14:37;98686.22;;;13.98;100.00
36600;BME280;35385;55.668;37.508;2023-04-28T01:15:38;98664.09;;;13.88;100.00
36600;BME280;35385;55.668;37.508;2023-04-28T01:16:39;98673.81;;;13.97;100.00
36600;BME280;35385;55.668;37.508;2023-04-28T01:17:40;98672.47;;;13.93;100.00
36600;BME280;35385;55.668;37.508;2023-04-28T01:18:41;98643.78;;;13.85;100.00
36600;BME280;35385;55.668;37.508;2023-04-28T01:19:46;98661.91;;;13.91;100.00
36600;BME280;35385;55.668;37.508;2023-04-28T01:20:46;98668.06;;;14.00;100.00
36600;BME280;35385;55.668;37.508;2023-04-28T01:21:48;98635.59;;;13.78;100.00
36600;BME280;35385;55.668;37.508;2023-04-28T01:22:48;98690.56;;;14.07;100.00
36600;BME280;35385;55.668;37.508;2023-04-28T01:23:49;98683.00;;;14.02;100.00
36600;BME280;35385;55.668;37.508;2023-04-28T01:24:50;98676.31;;;13.90;100.00
36600;BME280;35385;55.668;37.508;2023-04-28T01:25:50;98693.94;;;13.93;100.00
36600;BME280;35385;55.668;37.508;2023-04-28T01:26:51;98692.25;;;13.92;100.00
36600;BME280;35385;55.668;37.508;2023-04-28T01:27:52;98668.31;;;13.82;100.00
36600;BME280;35385;55.668;37.508;2023-04-28T01:28:52;98690.75;;;13.97;100.00
36600;BME280;35385;55.668;37.508;2023-04-28T01:29:53;98694.91;;;14.00;100.00
36600;BME280;35385;55.668;37.508;2023-04-28T01:30:53;98683.16;;;14.01;100.00
36600;BME280;35385;55.668;37.508;2023-04-28T01:31:55;98696.44;;;14.02;100.00
36600;BME280;35385;55.668;37.508;2023-04-28T01:32:56;98686.56;;;13.95;100.00
36600;BME280;35385;55.668;37.508;2023-04-28T01:33:57;98693.09;;;13.92;100.00
36600;BME280;35385;55.668;37.508;2023-04-28T01:34:57;98594.94;;;13.34;100.00
36600;BME280;35385;55.668;37.508;2023-04-28T01:35:58;98692.94;;;13.86;100.00
36600;BME280;35385;55.668;37.508;2023-04-28T01:36:58;98677.88;;;13.76;100.00
36600;BME280;35385;55.668;37.508;2023-04-28T01:37:59;98678.53;;;13.78;100.00
36600;BME280;35385;55.668;37.508;2023-04-28T01:39:00;98699.31;;;13.93;100.00
36600;BME280;35385;55.668;37.508;2023-04-28T01:40:00;98654.22;;;13.72;100.00
36600;BME280;35385;55.668;37.508;2023-04-28T01:41:01;98696.28;;;13.96;100.00
36600;BME280;35385;55.668;37.508;2023-04-28T01:42:04;98685.38;;;13.89;100.00
36600;BME280;35385;55.668;37.508;2023-04-28T01:43:05;98679.03;;;13.82;100.00
36600;BME280;35385;55.668;37.508;2023-04-28T01:44:06;98633.28;;;13.59;100.00
36600;BME280;35385;55.668;37.508;2023-04-28T01:45:07;98682.53;;;13.91;100.00
36600;BME280;35385;55.668;37.508;2023-04-28T01:46:11;98686.25;;;13.82;100.00
36600;BME280;35385;55.668;37.508;2023-04-28T01:47:12;98687.25;;;13.72;100.00
36600;BME280;35385;55.668;37.508;2023-04-28T01:48:12;98644.38;;;13.48;100.00
36600;BME280;35385;55.668;37.508;2023-04-28T01:49:13;98685.25;;;13.74;100.00
36600;BME280;35385;55.668;37.508;2023-04-28T01:50:13;98683.94;;;13.70;100.00
36600;BME280;35385;55.668;37.508;2023-04-28T01:51:14;98687.25;;;13.80;100.00
36600;BME280;35385;55.668;37.508;2023-04-28T01:52:14;98688.09;;;13.81;100.00
36600;BME280;35385;55.668;37.508;2023-04-28T01:53:15;98663.44;;;13.77;100.00
36600;BME280;35385;55.668;37.508;2023-04-28T01:54:19;98687.41;;;13.87;100.00
36600;BME280;35385;55.668;37.508;2023-04-28T01:55:20;98673.00;;;13.80;100.00
36600;BME280;35385;55.668;37.508;2023-04-28T01:56:21;98684.56;;;13.80;100.00
36600;BME280;35385;55.668;37.508;2023-04-28T01:57:22;98679.88;;;13.74;100.00
36600;BME280;35385;55.668;37.508;2023-04-28T01:58:23;98662.78;;;13.59;100.00
36600;BME280;35385;55.668;37.508;2023-04-28T01:59:23;98637.66;;;13.52;100.00
36600;BME280;35385;55.668;37.508;2023-04-28T02:00:24;98671.53;;;13.69;100.00
36600;BME280;35385;55.668;37.508;2023-04-28T02:01:24;98670.19;;;13.65;100.00
36600;BME280;35385;55.668;37.508;2023-04-28T02:02:25;98665.47;;;13.59;100.00
36600;BME280;35385;55.668;37.508;2023-04-28T02:03:26;98669.34;;;13.65;100.00
36600;BME280;35385;55.668;37.508;2023-04-28T02:04:27;98601.50;;;13.24;100.00
36600;BME280;35385;55.668;37.508;2023-04-28T02:05:27;98658.44;;;13.58;100.00
36600;BME280;35385;55.668;37.508;2023-04-28T02:06:28;98649.75;;;13.40;100.00
36600;BME280;35385;55.668;37.508;2023-04-28T02:07:28;98676.06;;;13.53;100.00
36600;BME280;35385;55.668;37.508;2023-04-28T02:08:29;98614.41;;;13.20;100.00
36600;BME280;35385;55.668;37.508;2023-04-28T02:09:31;98625.59;;;13.32;100.00
36600;BME280;35385;55.668;37.508;2023-04-28T02:10:31;98672.22;;;13.55;100.00
36600;BME280;35385;55.668;37.508;2023-04-28T02:11:32;98667.69;;;13.56;100.00
36600;BME280;35385;55.668;37.508;2023-04-28T02:12:33;98675.72;;;13.56;100.00
36600;BME280;35385;55.668;37.508;2023-04-28T02:13:33;98623.78;;;13.24;100.00
36600;BME280;35385;55.668;37.508;2023-04-28T02:14:34;98674.56;;;13.50;100.00
36600;BME280;35385;55.668;37.508;2023-04-28T02:15:39;98684.28;;;13.51;100.00
36600;BME280;35385;55.668;37.508;2023-04-28T02:16:40;98650.59;;;13.24;100.00
36600;BME280;35385;55.668;37.508;2023-04-28T02:17:40;98641.03;;;13.22;100.00
36600;BME280;35385;55.668;37.508;2023-04-28T02:18:41;98629.97;;;13.17;100.00
36600;BME280;35385;55.668;37.508;2023-04-28T02:19:41;98670.19;;;13.49;100.00
36600;BME280;35385;55.668;37.508;2023-04-28T02:20:42;98666.00;;;13.55;100.00
36600;BME280;35385;55.668;37.508;2023-04-28T02:21:43;98619.91;;;13.19;100.00
36600;BME280;35385;55.668;37.508;2023-04-28T02:22:44;98664.81;;;13.49;100.00
36600;BME280;35385;55.668;37.508;2023-04-28T02:23:44;98646.06;;;13.25;100.00
36600;BME280;35385;55.668;37.508;2023-04-28T02:24:45;98673.03;;;13.48;100.00
36600;BME280;35385;55.668;37.508;2023-04-28T02:25:46;98684.28;;;13.51;100.00
36600;BME280;35385;55.668;37.508;2023-04-28T02:26:47;98689.66;;;13.51;100.00
36600;BME280;35385;55.668;37.508;2023-04-28T02:27:48;98674.03;;;13.47;100.00
36600;BME280;35385;55.668;37.508;2023-04-28T02:28:48;98675.06;;;13.37;100.00
36600;BME280;35385;55.668;37.508;2023-04-28T02:29:49;98675.88;;;13.46;100.00
36600;BME280;35385;55.668;37.508;2023-04-28T02:30:49;98601.63;;;13.06;100.00
36600;BME280;35385;55.668;37.508;2023-04-28T02:31:50;98694.50;;;13.64;100.00
36600;BME280;35385;55.668;37.508;2023-04-28T02:32:51;98658.66;;;13.40;100.00
36600;BME280;35385;55.668;37.508;2023-04-28T02:33:51;98700.03;;;13.70;100.00
36600;BME280;35385;55.668;37.508;2023-04-28T02:34:55;98637.84;;;13.34;100.00
36600;BME280;35385;55.668;37.508;2023-04-28T02:35:59;98648.72;;;13.49;100.00
36600;BME280;35385;55.668;37.508;2023-04-28T02:37:00;98637.34;;;13.39;100.00
36600;BME280;35385;55.668;37.508;2023-04-28T02:38:01;98653.91;;;13.42;100.00
36600;BME280;35385;55.668;37.508;2023-04-28T02:39:01;98695.69;;;13.53;100.00
36600;BME280;35385;55.668;37.508;2023-04-28T02:40:02;98643.88;;;13.28;100.00
36600;BME280;35385;55.668;37.508;2023-04-28T02:41:06;98670.53;;;13.46;100.00
36600;BME280;35385;55.668;37.508;2023-04-28T02:42:08;98692.81;;;13.63;100.00
36600;BME280;35385;55.668;37.508;2023-04-28T02:43:09;98675.88;;;13.62;100.00
36600;BME280;35385;55.668;37.508;2023-04-28T02:44:09;98655.59;;;13.43;100.00
36600;BME280;35385;55.668;37.508;2023-04-28T02:45:10;98680.41;;;13.62;100.00
36600;BME280;35385;55.668;37.508;2023-04-28T02:46:11;98660.78;;;13.45;100.00
36600;BME280;35385;55.668;37.508;2023-04-28T02:47:11;98646.22;;;13.31;100.00
36600;BME280;35385;55.668;37.508;2023-04-28T02:48:12;98707.03;;;13.71;100.00
36600;BME280;35385;55.668;37.508;2023-04-28T02:49:12;98699.19;;;13.70;100.00
36600;BME280;35385;55.668;37.508;2023-04-28T02:50:13;98693.97;;;13.60;100.00
36600;BME280;35385;55.668;37.508;2023-04-28T02:51:16;98706.75;;;13.66;100.00
36600;BME280;35385;55.668;37.508;2023-04-28T02:52:17;98691.31;;;13.68;100.00
36600;BME280;35385;55.668;37.508;2023-04-28T02:53:18;98710.75;;;13.78;100.00
36600;BME280;35385;55.668;37.508;2023-04-28T02:54:19;98693.63;;;13.79;100.00
36600;BME280;35385;55.668;37.508;2023-04-28T02:55:28;98707.56;;;13.83;100.00
36600;BME280;35385;55.668;37.508;2023-04-28T02:56:29;98693.31;;;13.83;100.00
36600;BME280;35385;55.668;37.508;2023-04-28T02:57:30;98656.94;;;13.64;100.00
36600;BME280;35385;55.668;37.508;2023-04-28T02:58:30;98701.66;;;13.88;100.00
36600;BME280;35385;55.668;37.508;2023-04-28T02:59:31;98614.38;;;13.28;100.00
36600;BME280;35385;55.668;37.508;2023-04-28T03:00:32;98706.56;;;13.76;100.00
36600;BME280;35385;55.668;37.508;2023-04-28T03:01:32;98645.88;;;13.51;100.00
36600;BME280;35385;55.668;37.508;2023-04-28T03:02:33;98692.81;;;13.79;100.00
36600;BME280;35385;55.668;37.508;2023-04-28T03:03:33;98665.47;;;13.59;100.00
36600;BME280;35385;55.668;37.508;2023-04-28T03:04:34;98680.22;;;13.79;100.00
36600;BME280;35385;55.668;37.508;2023-04-28T03:05:35;98701.00;;;13.86;100.00
36600;BME280;35385;55.668;37.508;2023-04-28T03:06:36;98692.09;;;13.85;100.00
36600;BME280;35385;55.668;37.508;2023-04-28T03:07:36;98707.69;;;13.90;100.00
36600;BME280;35385;55.668;37.508;2023-04-28T03:08:37;98704.00;;;13.91;100.00
36600;BME280;35385;55.668;37.508;2023-04-28T03:09:38;98686.72;;;13.93;100.00
36600;BME280;35385;55.668;37.508;2023-04-28T03:10:38;98620.72;;;13.52;100.00
36600;BME280;35385;55.668;37.508;2023-04-28T03:11:39;98646.19;;;13.64;100.00
36600;BME280;35385;55.668;37.508;2023-04-28T03:12:40;98638.97;;;13.56;100.00
36600;BME280;35385;55.668;37.508;2023-04-28T03:13:41;98683.56;;;13.73;100.00
36600;BME280;35385;55.668;37.508;2023-04-28T03:14:41;98655.44;;;13.53;100.00
36600;BME280;35385;55.668;37.508;2023-04-28T03:15:42;98678.06;;;13.67;100.00
36600;BME280;35385;55.668;37.508;2023-04-28T03:16:42;98702.03;;;13.85;100.00
36600;BME280;35385;55.668;37.508;2023-04-28T03:17:43;98674.53;;;13.66;100.00
36600;BME280;35385;55.668;37.508;2023-04-28T03:18:44;98702.16;;;13.91;100.00
36600;BME280;35385;55.668;37.508;2023-04-28T03:19:44;98710.06;;;13.93;100.00
36600;BME280;35385;55.668;37.508;2023-04-28T03:20:45;98722.47;;;13.86;100.00
36600;BME280;35385;55.668;37.508;2023-04-28T03:21:46;98715.91;;;13.88;100.00
36600;BME280;35385;55.668;37.508;2023-04-28T03:22:47;98658.78;;;13.55;100.00
36600;BME280;35385;55.668;37.508;2023-04-28T03:23:47;98726.81;;;13.95;100.00
36600;BME280;35385;55.668;37.508;2023-04-28T03:24:48;98720.97;;;13.91;100.00
36600;BME280;35385;55.668;37.508;2023-04-28T03:25:48;98672.69;;;13.67;100.00
36600;BME280;35385;55.668;37.508;2023-04-28T03:26:49;98712.41;;;13.88;100.00
36600;BME280;35385;55.668;37.508;2023-04-28T03:27:50;98673.53;;;13.67;100.00
36600;BME280;35385;55.668;37.508;2023-04-28T03:28:50;98721.97;;;13.90;100.00
36600;BME280;35385;55.668;37.508;2023-04-28T03:29:52;98723.81;;;13.98;100.00
36600;BME280;35385;55.668;37.508;2023-04-28T03:30:55;98696.50;;;13.78;100.00
36600;BME280;35385;55.668;37.508;2023-04-28T03:31:58;98711.59;;;13.79;100.00
36600;BME280;35385;55.668;37.508;2023-04-28T03:32:58;98727.50;;;13.89;100.00
36600;BME280;35385;55.668;37.508;2023-04-28T03:34:02;98726.97;;;14.01;100.00
36600;BME280;35385;55.668;37.508;2023-04-28T03:35:03;98712.91;;;13.91;100.00
36600;BME280;35385;55.668;37.508;2023-04-28T03:36:05;98722.13;;;13.97;100.00
36600;BME280;35385;55.668;37.508;2023-04-28T03:37:05;98726.13;;;14.01;100.00
36600;BME280;35385;55.668;37.508;2023-04-28T03:38:06;98718.56;;;14.04;100.00
36600;BME280;35385;55.668;37.508;2023-04-28T03:39:07;98721.41;;;14.19;100.00
36600;BME280;35385;55.668;37.508;2023-04-28T03:40:09;98725.28;;;14.08;100.00
36600;BME280;35385;55.668;37.508;2023-04-28T03:41:10;98670.84;;;13.59;100.00
36600;BME280;35385;55.668;37.508;2023-04-28T03:42:11;98730.84;;;13.99;100.00
36600;BME280;35385;55.668;37.508;2023-04-28T03:43:11;98715.06;;;14.12;100.00
36600;BME280;35385;55.668;37.508;2023-04-28T03:44:12;98734.81;;;14.19;100.00
36600;BME280;35385;55.668;37.508;2023-04-28T03:45:12;98684.88;;;13.94;100.00
36600;BME280;35385;55.668;37.508;2023-04-28T03:46:13;98719.91;;;14.08;100.00
36600;BME280;35385;55.668;37.508;2023-04-28T03:47:14;98689.38;;;14.01;100.00
36600;BME280;35385;55.668;37.508;2023-04-28T03:48:14;98728.13;;;14.15;100.00
36600;BME280;35385;55.668;37.508;2023-04-28T03:49:15;98716.06;;;14.03;100.00
36600;BME280;35385;55.668;37.508;2023-04-28T03:50:16;98647.56;;;13.52;100.00
36600;BME280;35385;55.668;37.508;2023-04-28T03:51:17;98745.09;;;14.07;100.00
36600;BME280;35385;55.668;37.508;2023-04-28T03:52:18;98729.00;;;13.99;100.00
36600;BME280;35385;55.668;37.508;2023-04-28T03:53:19;98734.72;;;13.96;100.00
36600;BME280;35385;55.668;37.508;2023-04-28T03:54:19;98728.81;;;14.01;100.00
36600;BME280;35385;55.668;37.508;2023-04-28T03:55:20;98732.84;;;14.05;100.00
36600;BME280;35385;55.668;37.508;2023-04-28T03:56:21;98738.19;;;14.21;100.00
36600;BME280;35385;55.668;37.508;2023-04-28T03:57:21;98741.03;;;14.28;100.00
36600;BME280;35385;55.668;37.508;2023-04-28T03:58:22;98729.97;;;14.14;100.00
36600;BME280;35385;55.668;37.508;2023-04-28T03:59:23;98693.94;;;13.93;100.00
36600;BME280;35385;55.668;37.508;2023-04-28T04:00:23;98724.16;;;13.95;100.00
36600;BME280;35385;55.668;37.508;2023-04-28T04:01:24;98694.97;;;13.84;100.00
36600;BME280;35385;55.668;37.508;2023-04-28T04:02:25;98646.69;;;13.59;100.00
36600;BME280;35385;55.668;37.508;2023-04-28T04:03:25;98734.66;;;14.21;100.00
36600;BME280;35385;55.668;37.508;2023-04-28T04:04:26;98735.72;;;13.95;100.00
36600;BME280;35385;55.668;37.508;2023-04-28T04:05:27;98733.22;;;13.61;100.00
36600;BME280;35385;55.668;37.508;2023-04-28T04:06:27;98731.72;;;13.67;100.00
36600;BME280;35385;55.668;37.508;2023-04-28T04:07:28;98739.78;;;13.83;100.00
36600;BME280;35385;55.668;37.508;2023-04-28T04:08:28;98752.84;;;13.78;100.00
36600;BME280;35385;55.668;37.508;2023-04-28T04:09:29;98712.44;;;13.55;100.00
36600;BME280;35385;55.668;37.508;2023-04-28T04:10:30;98749.66;;;13.66;100.00
36600;BME280;35385;55.668;37.508;2023-04-28T04:11:31;98744.97;;;13.52;100.00
36600;BME280;35385;55.668;37.508;2023-04-28T04:12:31;98709.94;;;13.37;100.00
36600;BME280;35385;55.668;37.508;2023-04-28T04:13:32;98735.25;;;13.67;100.00
36600;BME280;35385;55.668;37.508;2023-04-28T04:14:32;98747.63;;;13.93;100.00
36600;BME280;35385;55.668;37.508;2023-04-28T04:15:33;98756.50;;;14.01;100.00
36600;BME280;35385;55.668;37.508;2023-04-28T04:16:35;98747.31;;;13.96;100.00
36600;BME280;35385;55.668;37.508;2023-04-28T04:17:35;98705.53;;;13.77;100.00
36600;BME280;35385;55.668;37.508;2023-04-28T04:18:36;98741.22;;;14.10;100.00
36600;BME280;35385;55.668;37.508;2023-04-28T04:19:37;98693.81;;;13.70;100.00
36600;BME280;35385;55.668;37.508;2023-04-28T04:20:37;98748.31;;;13.95;100.00
36600;BME280;35385;55.668;37.508;2023-04-28T04:21:38;98713.78;;;13.59;100.00
36600;BME280;35385;55.668;37.508;2023-04-28T04:22:38;98742.59;;;13.73;100.00
36600;BME280;35385;55.668;37.508;2023-04-28T04:23:39;98736.59;;;13.63;100.00
36600;BME280;35385;55.668;37.508;2023-04-28T04:24:40;98763.75;;;13.60;100.00
36600;BME280;35385;55.668;37.508;2023-04-28T04:25:41;98741.94;;;13.31;100.00
36600;BME280;35385;55.668;37.508;2023-04-28T04:26:41;98756.00;;;13.33;100.00
36600;BME280;35385;55.668;37.508;2023-04-28T04:27:42;98735.38;;;13.17;100.00
36600;BME280;35385;55.668;37.508;2023-04-28T04:28:42;98765.75;;;13.34;100.00
36600;BME280;35385;55.668;37.508;2023-04-28T04:29:43;98768.41;;;13.34;100.00
36600;BME280;35385;55.668;37.508;2023-04-28T04:30:43;98753.97;;;13.19;100.00
36600;BME280;35385;55.668;37.508;2023-04-28T04:31:44;98743.88;;;13.04;100.00
36600;BME280;35385;55.668;37.508;2023-04-28T04:32:45;98764.19;;;13.15;100.00
36600;BME280;35385;55.668;37.508;2023-04-28T04:33:45;98772.56;;;13.12;100.00
36600;BME280;35385;55.668;37.508;2023-04-28T04:34:46;98764.63;;;13.02;100.00
36600;BME280;35385;55.668;37.508;2023-04-28T04:35:46;98773.91;;;13.16;100.00
36600;BME280;35385;55.668;37.508;2023-04-28T04:36:47;98764.03;;;13.17;100.00
36600;BME280;35385;55.668;37.508;2023-04-28T04:37:48;98707.13;;;12.81;100.00
36600;BME280;35385;55.668;37.508;2023-04-28T04:38:48;98762.31;;;13.07;100.00
36600;BME280;35385;55.668;37.508;2023-04-28T04:39:49;98705.63;;;12.86;100.00
36600;BME280;35385;55.668;37.508;2023-04-28T04:40:49;98759.34;;;13.19;100.00
36600;BME280;35385;55.668;37.508;2023-04-28T04:41:50;98746.63;;;13.21;100.00
36600;BME280;35385;55.668;37.508;2023-04-28T04:42:51;98763.72;;;13.44;100.00
36600;BME280;35385;55.668;37.508;2023-04-28T04:43:52;98764.41;;;13.38;100.00
36600;BME280;35385;55.668;37.508;2023-04-28T04:44:53;98726.31;;;13.10;100.00
36600;BME280;35385;55.668;37.508;2023-04-28T04:45:54;98769.75;;;13.30;100.00
36600;BME280;35385;55.668;37.508;2023-04-28T04:46:54;98764.75;;;13.35;100.00
36600;BME280;35385;55.668;37.508;2023-04-28T04:47:55;98768.09;;;13.45;100.00
36600;BME280;35385;55.668;37.508;2023-04-28T04:48:56;98770.78;;;13.45;100.00
36600;BME280;35385;55.668;37.508;2023-04-28T04:49:57;98721.09;;;13.08;100.00
36600;BME280;35385;55.668;37.508;2023-04-28T04:50:57;98780.34;;;13.48;100.00
36600;BME280;35385;55.668;37.508;2023-04-28T04:51:58;98776.16;;;13.61;100.00
36600;BME280;35385;55.668;37.508;2023-04-28T04:52:58;98733.56;;;13.34;100.00
36600;BME280;35385;55.668;37.508;2023-04-28T04:53:59;98779.34;;;13.40;100.00
36600;BME280;35385;55.668;37.508;2023-04-28T04:55:00;98785.53;;;13.41;100.00
36600;BME280;35385;55.668;37.508;2023-04-28T04:56:00;98746.91;;;13.09;100.00
36600;BME280;35385;55.668;37.508;2023-04-28T04:57:01;98789.88;;;13.42;100.00
36600;BME280;35385;55.668;37.508;2023-04-28T04:58:02;98796.28;;;13.41;100.00
36600;BME280;35385;55.668;37.508;2023-04-28T04:59:03;98735.72;;;13.22;100.00
36600;BME280;35385;55.668;37.508;2023-04-28T05:00:04;98751.31;;;13.35;100.00
36600;BME280;35385;55.668;37.508;2023-04-28T05:01:09;98788.75;;;13.69;100.00
36600;BME280;35385;55.668;37.508;2023-04-28T05:02:12;98796.66;;;13.70;100.00
36600;BME280;35385;55.668;37.508;2023-04-28T05:03:12;98802.34;;;13.67;100.00
36600;BME280;35385;55.668;37.508;2023-04-28T05:04:13;98778.50;;;13.80;100.00
36600;BME280;35385;55.668;37.508;2023-04-28T05:05:14;98798.47;;;13.86;100.00
36600;BME280;35385;55.668;37.508;2023-04-28T05:06:14;98795.63;;;13.79;100.00
36600;BME280;35385;55.668;37.508;2023-04-28T05:07:15;98795.28;;;13.66;100.00
36600;BME280;35385;55.668;37.508;2023-04-28T05:08:16;98785.72;;;13.48;100.00
36600;BME280;35385;55.668;37.508;2023-04-28T05:09:19;98796.94;;;13.35;100.00
36600;BME280;35385;55.668;37.508;2023-04-28T05:10:23;98805.81;;;13.35;100.00
36600;BME280;35385;55.668;37.508;2023-04-28T05:11:24;98771.75;;;13.28;100.00
36600;BME280;35385;55.668;37.508;2023-04-28T05:12:25;98786.19;;;13.35;100.00
36600;BME280;35385;55.668;37.508;2023-04-28T05:13:25;98705.97;;;12.83;100.00
36600;BME280;35385;55.668;37.508;2023-04-28T05:14:26;98799.72;;;13.17;100.00